createdAt,value
2018-11-25T00:00:02.755Z,5.1
2018-11-25T00:05:02.584Z,5
2018-11-25T00:10:01.336Z,5
2018-11-25T00:15:02.325Z,5
2018-11-25T00:20:01.289Z,5
2018-11-25T00:25:02.301Z,5
2018-11-25T00:30:01.780Z,5
2018-11-25T00:35:01.751Z,4.9
2018-11-25T00:40:01.609Z,4.9
2018-11-25T00:45:01.469Z,4.9
2018-11-25T00:50:01.168Z,4.9
2018-11-25T00:55:01.763Z,4.9
2018-11-25T01:00:01.750Z,4.9
2018-11-25T01:05:01.250Z,4.9
2018-11-25T01:10:02.142Z,4.9
2018-11-25T01:15:01.691Z,5
2018-11-25T01:20:01.932Z,5
2018-11-25T01:25:02.182Z,5
2018-11-25T01:30:01.352Z,4.9
2018-11-25T01:35:01.485Z,5
2018-11-25T01:40:01.762Z,5
2018-11-25T01:45:01.329Z,5
2018-11-25T01:50:01.273Z,5
2018-11-25T01:55:01.659Z,5
2018-11-25T02:00:01.599Z,5.1
2018-11-25T02:05:02.302Z,5.1
2018-11-25T02:10:02.017Z,5.2
2018-11-25T02:15:01.909Z,5.2
2018-11-25T02:20:01.978Z,5.2
2018-11-25T02:25:01.445Z,5.2
2018-11-25T02:30:01.256Z,5.2
2018-11-25T02:35:01.667Z,5.3
2018-11-25T02:40:01.700Z,5.3
2018-11-25T02:45:01.897Z,5.3
2018-11-25T02:50:01.911Z,5.3
2018-11-25T02:55:01.542Z,5.4
2018-11-25T03:00:02.057Z,5.4
2018-11-25T03:05:01.769Z,5.4
2018-11-25T03:10:01.787Z,5.4
2018-11-25T03:15:01.265Z,5.4
2018-11-25T03:20:01.402Z,5.5
2018-11-25T03:25:02.110Z,5.5
2018-11-25T03:30:01.962Z,5.5
2018-11-25T03:35:01.411Z,5.6
2018-11-25T03:40:01.175Z,5.6
2018-11-25T03:45:02.049Z,5.6
2018-11-25T03:50:01.839Z,5.6
2018-11-25T03:55:01.358Z,5.6
2018-11-25T04:00:01.557Z,5.6
2018-11-25T04:05:01.731Z,5.6
2018-11-25T04:10:01.579Z,5.6
2018-11-25T04:15:02.160Z,5.7
2018-11-25T04:20:01.955Z,5.7
2018-11-25T04:25:01.540Z,5.7
2018-11-25T04:30:01.482Z,5.7
2018-11-25T04:35:02.031Z,5.6
2018-11-25T04:40:01.953Z,5.7
2018-11-25T04:45:01.363Z,5.6
2018-11-25T04:50:02.297Z,5.6
2018-11-25T04:55:01.442Z,5.6
2018-11-25T05:00:01.386Z,5.6
2018-11-25T05:05:01.264Z,5.6
2018-11-25T05:10:02.329Z,5.6
2018-11-25T05:15:01.806Z,5.6
2018-11-25T05:20:01.651Z,5.5
2018-11-25T05:25:01.584Z,5.5
2018-11-25T05:30:02.105Z,5.5
2018-11-25T05:35:01.660Z,5.5
2018-11-25T05:40:01.863Z,5.5
2018-11-25T05:45:01.884Z,5.4
2018-11-25T05:50:01.525Z,5.4
2018-11-25T05:55:01.194Z,5.4
2018-11-25T06:00:01.219Z,5.4
2018-11-25T06:05:01.509Z,5.3
2018-11-25T06:10:01.850Z,5.3
2018-11-25T06:15:01.452Z,5.3
2018-11-25T06:20:02.073Z,5.3
2018-11-25T06:25:01.769Z,5.3
2018-11-25T06:30:01.717Z,5.4
2018-11-25T06:35:01.937Z,5.4
2018-11-25T06:40:02.348Z,5.4
2018-11-25T06:45:01.236Z,5.3
2018-11-25T06:50:01.318Z,5.4
2018-11-25T06:55:01.463Z,5.3
2018-11-25T07:00:01.669Z,5.3
2018-11-25T07:05:01.291Z,5.3
2018-11-25T07:10:01.683Z,5.3
2018-11-25T07:15:02.020Z,5.4
2018-11-25T07:20:01.727Z,5.4
2018-11-25T07:25:01.521Z,5.4
2018-11-25T07:30:07.528Z,5.4
2018-11-25T07:35:02.133Z,5.5
2018-11-25T07:40:01.894Z,5.5
2018-11-25T07:45:01.329Z,5.5
2018-11-25T07:50:01.549Z,5.5
2018-11-25T07:55:01.424Z,5.5
2018-11-25T08:00:01.518Z,5.5
2018-11-25T08:05:01.339Z,5.6
2018-11-25T08:10:01.522Z,5.6
2018-11-25T08:15:01.138Z,5.6
2018-11-25T08:20:02.019Z,5.6
2018-11-25T08:25:01.170Z,5.6
2018-11-25T08:30:01.689Z,5.7
2018-11-25T08:35:02.303Z,5.8
2018-11-25T08:40:02.036Z,5.8
2018-11-25T08:45:01.734Z,5.8
2018-11-25T08:50:01.824Z,5.9
2018-11-25T08:55:02.020Z,5.9
2018-11-25T09:00:01.421Z,6
2018-11-25T09:05:01.213Z,6
2018-11-25T09:10:01.488Z,6.1
2018-11-25T09:15:01.662Z,6.2
2018-11-25T09:20:01.470Z,6.2
2018-11-25T09:25:02.377Z,6.2
2018-11-25T09:30:01.857Z,6.3
2018-11-25T09:35:01.871Z,6.2
2018-11-25T09:40:01.988Z,6.2
2018-11-25T09:45:01.600Z,6.3
2018-11-25T09:50:01.623Z,6.3
2018-11-25T09:55:01.401Z,6.3
2018-11-25T10:00:01.348Z,6.4
2018-11-25T10:05:01.408Z,6.4
2018-11-25T10:10:01.169Z,6.4
2018-11-25T10:15:02.075Z,6.5
2018-11-25T10:20:01.178Z,6.5
2018-11-25T10:25:01.868Z,6.6
2018-11-25T10:30:01.746Z,6.7
2018-11-25T10:35:01.617Z,6.7
2018-11-25T10:40:02.229Z,6.7
2018-11-25T10:45:01.913Z,6.7
2018-11-25T10:50:02.063Z,6.7
2018-11-25T10:55:01.799Z,6.7
2018-11-25T11:00:01.537Z,6.7
2018-11-25T11:05:02.040Z,6.7
2018-11-25T11:10:01.565Z,6.7
2018-11-25T11:15:02.145Z,6.7
2018-11-25T11:20:01.893Z,6.7
2018-11-25T11:25:01.614Z,6.7
2018-11-25T11:30:01.986Z,6.7
2018-11-25T11:35:01.533Z,6.7
2018-11-25T11:40:01.544Z,6.7
2018-11-25T11:45:01.412Z,6.9
2018-11-25T11:50:01.379Z,6.9
2018-11-25T11:55:01.435Z,6.8
2018-11-25T12:00:01.876Z,6.9
2018-11-25T12:05:01.402Z,6.9
2018-11-25T12:10:01.373Z,6.9
2018-11-25T12:15:01.928Z,6.9
2018-11-25T12:20:01.622Z,7
2018-11-25T12:25:01.860Z,7
2018-11-25T12:30:01.379Z,6.9
2018-11-25T12:35:02.037Z,6.9
2018-11-25T12:40:01.945Z,6.9
2018-11-25T12:45:01.926Z,7
2018-11-25T12:50:01.831Z,7
2018-11-25T12:55:02.191Z,7
2018-11-25T13:00:01.336Z,7.1
2018-11-25T13:05:01.771Z,7
2018-11-25T13:10:01.747Z,7
2018-11-25T13:15:01.613Z,7.1
2018-11-25T13:20:01.344Z,7.1
2018-11-25T13:25:01.585Z,7
2018-11-25T13:30:02.178Z,7
2018-11-25T13:35:01.788Z,7
2018-11-25T13:40:01.588Z,7
2018-11-25T13:45:01.949Z,7
2018-11-25T13:50:02.113Z,7
2018-11-25T13:55:01.369Z,7
2018-11-25T14:00:01.796Z,7
2018-11-25T14:05:02.037Z,7
2018-11-25T14:10:02.035Z,6.9
2018-11-25T14:15:01.472Z,6.9
2018-11-25T14:20:01.179Z,6.9
2018-11-25T14:25:01.343Z,6.9
2018-11-25T14:30:01.704Z,6.9
2018-11-25T14:35:02.096Z,6.9
2018-11-25T14:40:01.736Z,6.9
2018-11-25T14:45:01.758Z,6.9
2018-11-25T14:50:01.632Z,6.9
2018-11-25T14:55:01.582Z,6.8
2018-11-25T15:00:02.287Z,6.8
2018-11-25T15:05:02.099Z,6.8
2018-11-25T15:10:01.318Z,6.8
2018-11-25T15:15:01.565Z,6.8
2018-11-25T15:20:01.410Z,6.7
2018-11-25T15:25:01.484Z,6.7
2018-11-25T15:30:01.811Z,6.6
2018-11-25T15:35:02.179Z,6.6
2018-11-25T15:40:01.854Z,6.6
2018-11-25T15:45:02.120Z,6.6
2018-11-25T15:50:01.577Z,6.6
2018-11-25T15:55:02.233Z,6.6
2018-11-25T16:00:01.454Z,6.6
2018-11-25T16:05:02.009Z,6.7
2018-11-25T16:10:01.916Z,6.7
2018-11-25T16:15:02.127Z,6.7
2018-11-25T16:20:01.713Z,6.8
2018-11-25T16:25:01.770Z,6.8
2018-11-25T16:30:02.432Z,6.7
2018-11-25T16:35:01.582Z,6.7
2018-11-25T16:40:01.520Z,6.7
2018-11-25T16:45:01.421Z,6.7
2018-11-25T16:50:01.997Z,6.7
2018-11-25T16:55:02.073Z,6.7
2018-11-25T17:00:01.911Z,6.7
2018-11-25T17:05:01.350Z,6.8
2018-11-25T17:10:02.107Z,6.8
2018-11-25T17:15:01.696Z,6.8
2018-11-25T17:20:01.879Z,6.8
2018-11-25T17:25:01.608Z,6.8
2018-11-25T17:30:01.249Z,6.8
2018-11-25T17:35:01.638Z,6.8
2018-11-25T17:40:01.173Z,6.8
2018-11-25T17:45:01.866Z,6.7
2018-11-25T17:50:01.902Z,6.8
2018-11-25T17:55:01.559Z,6.7
2018-11-25T18:00:01.855Z,6.8
2018-11-25T18:05:02.319Z,6.8
2018-11-25T18:10:01.857Z,6.8
2018-11-25T18:15:02.025Z,6.8
2018-11-25T18:20:02.802Z,6.7
2018-11-25T18:25:01.449Z,6.7
2018-11-25T18:30:02.116Z,6.7
2018-11-25T18:35:01.849Z,6.6
2018-11-25T18:40:01.903Z,6.6
2018-11-25T18:45:01.336Z,6.5
2018-11-25T18:50:01.352Z,6.4
2018-11-25T18:55:01.962Z,6.4
2018-11-25T19:00:01.346Z,6.3
2018-11-25T19:05:01.788Z,6.2
2018-11-25T19:10:01.652Z,6.2
2018-11-25T19:15:01.198Z,6.4
2018-11-25T19:20:01.416Z,6.5
2018-11-25T19:25:02.014Z,6.6
2018-11-25T19:30:01.335Z,6.7
2018-11-25T19:35:01.257Z,6.8
2018-11-25T19:40:01.959Z,6.8
2018-11-25T19:45:01.351Z,6.9
2018-11-25T19:50:02.182Z,6.9
2018-11-25T19:55:01.277Z,6.9
2018-11-25T20:00:02.157Z,6.9
2018-11-25T20:05:01.843Z,7
2018-11-25T20:10:01.406Z,7
2018-11-25T20:15:01.317Z,7
2018-11-25T20:20:02.262Z,7
2018-11-25T20:25:02.194Z,7.1
2018-11-25T20:30:01.312Z,7.1
2018-11-25T20:35:02.009Z,7.1
2018-11-25T20:40:02.112Z,7.1
2018-11-25T20:45:01.574Z,7.1
2018-11-25T20:50:02.723Z,7.1
2018-11-25T20:55:01.524Z,7.1
2018-11-25T21:00:02.122Z,7.1
2018-11-25T21:05:01.416Z,7.2
2018-11-25T21:10:02.668Z,7.2
2018-11-25T21:15:01.695Z,7.2
2018-11-25T21:20:02.469Z,7.2
2018-11-25T21:25:01.471Z,7.2
2018-11-25T21:30:01.432Z,7.2
2018-11-25T21:35:01.722Z,7.2
2018-11-25T21:40:01.386Z,7.2
2018-11-25T21:45:01.749Z,7.1
2018-11-25T21:50:01.769Z,7.1
2018-11-25T21:55:02.094Z,7.1
2018-11-25T22:00:01.988Z,7.1
2018-11-25T22:05:02.088Z,7.1
2018-11-25T22:10:01.823Z,7.1
2018-11-25T22:15:01.884Z,7.1
2018-11-25T22:20:01.465Z,7.1
2018-11-25T22:25:01.435Z,7
2018-11-25T22:30:02.281Z,7.1
2018-11-25T22:35:01.225Z,7.1
2018-11-25T22:40:01.672Z,7.1
2018-11-25T22:45:02.006Z,7.1
2018-11-25T22:50:02.285Z,7.1
2018-11-25T22:55:01.358Z,7.1
2018-11-25T23:00:01.579Z,7.1
2018-11-25T23:05:02.045Z,7.1
2018-11-25T23:10:02.359Z,7.2
2018-11-25T23:15:02.301Z,7.2
2018-11-25T23:20:01.572Z,7.2
2018-11-25T23:25:01.757Z,7.1
2018-11-25T23:30:02.238Z,6.9
2018-11-25T23:35:02.173Z,6.8
2018-11-25T23:40:01.314Z,6.8
2018-11-25T23:45:02.299Z,6.7
2018-11-25T23:50:02.088Z,6.7
2018-11-25T23:55:02.018Z,6.7
